Time;durP1;ratioP1;P1;durP2;ratioP2;P2;SDS_P1;SDS_P2;PMS_P1;PMS_P2;Temp;Humidity;BMP_temperature;BMP_pressure;BME280_temperature;BME280_humidity;BME280_pressure;Samples;Min_cycle;Max_cycle;Signal;HPM_P1;HPM_P2
2022/05/06 00:02:08;;;;;;;9.53;5.60;;;10.80;99.90;;;11.74;100.00;98831.88;5017934;28;20547;-86
2022/05/06 00:04:38;;;;;;;8.20;5.80;;;10.90;99.90;;;11.68;100.00;98831.72;5017015;28;20480;-87
2022/05/06 00:07:07;;;;;;;8.17;5.87;;;10.80;99.90;;;11.71;100.00;98828.78;5018449;28;21069;-87
2022/05/06 00:09:38;;;;;;;7.90;6.00;;;10.70;99.90;;;11.69;100.00;98828.13;5017467;28;20586;-86
2022/05/06 00:12:10;;;;;;;10.13;5.87;;;10.80;99.90;;;11.67;100.00;98819.59;5017387;28;20474;-87
2022/05/06 00:14:41;;;;;;;15.60;6.77;;;10.70;99.90;;;11.65;100.00;98837.31;5015141;28;20497;-87
2022/05/06 00:17:10;;;;;;;9.67;7.17;;;10.80;99.90;;;11.63;100.00;98827.81;5016785;28;20457;-86
2022/05/06 00:19:41;;;;;;;10.20;5.90;;;10.70;99.90;;;11.60;100.00;98828.16;5016685;28;21014;-87
2022/05/06 00:22:11;;;;;;;16.37;6.40;;;10.70;99.90;;;11.56;100.00;98828.69;5018140;28;20470;-87
2022/05/06 00:24:41;;;;;;;9.40;6.10;;;10.60;99.90;;;11.46;100.00;98828.91;5017416;28;20469;-87
2022/05/06 00:27:10;;;;;;;10.17;6.27;;;10.60;99.90;;;11.39;100.00;98825.34;5017401;28;20536;-86
2022/05/06 00:29:42;;;;;;;7.60;5.80;;;10.50;99.90;;;11.38;100.00;98825.53;5015826;28;21431;-87
2022/05/06 00:32:12;;;;;;;12.80;6.20;;;10.50;99.90;;;11.34;100.00;98825.06;5018349;28;20469;-86
2022/05/06 00:34:43;;;;;;;13.13;6.80;;;10.50;99.90;;;11.32;100.00;98826.22;5015988;28;20498;-86
2022/05/06 00:37:13;;;;;;;9.03;5.87;;;10.40;99.90;;;11.33;100.00;98830.47;5018677;28;20516;-87
2022/05/06 00:39:46;;;;;;;9.90;6.17;;;10.40;99.90;;;11.26;100.00;98832.97;5017982;28;20561;-86
2022/05/06 00:42:17;;;;;;;13.80;6.00;;;10.40;99.90;;;11.19;100.00;98824.16;5020236;28;20457;-87
2022/05/06 00:44:48;;;;;;;7.27;5.90;;;10.30;99.90;;;11.15;100.00;98822.03;5021477;28;20501;-87
2022/05/06 00:47:20;;;;;;;13.10;6.10;;;10.20;99.90;;;11.13;100.00;98826.66;5023679;28;20466;-87
2022/05/06 00:49:53;;;;;;;12.23;6.23;;;10.30;99.90;;;11.11;100.00;98827.63;5021928;28;20466;-87
2022/05/06 00:52:23;;;;;;;12.40;6.20;;;10.20;99.90;;;11.13;100.00;98826.66;5022428;28;20454;-87
2022/05/06 00:54:54;;;;;;;9.43;5.80;;;10.20;99.90;;;11.13;100.00;98822.22;5019506;28;20539;-87
2022/05/06 00:57:25;;;;;;;12.90;6.17;;;10.10;99.90;;;11.10;100.00;98826.03;5021968;28;20520;-87
2022/05/06 01:02:45;;;;;;;8.77;5.77;;;10.20;99.90;;;11.04;100.00;98829.28;5019804;28;20462;-87
2022/05/06 01:05:15;;;;;;;12.30;6.73;;;10.20;99.90;;;10.94;100.00;98827.88;5021587;28;20469;-87
2022/05/06 01:07:47;;;;;;;6.40;5.60;;;10.00;99.90;;;10.88;100.00;98839.00;5019715;28;20464;-87
2022/05/06 01:10:17;;;;;;;10.93;6.07;;;10.10;99.90;;;10.86;100.00;98835.75;5019714;28;20466;-86
2022/05/06 01:12:48;;;;;;;8.47;6.10;;;10.00;99.90;;;10.85;100.00;98834.13;5020426;28;20484;-86
2022/05/06 01:15:22;;;;;;;10.23;7.60;;;10.00;99.90;;;10.85;100.00;98827.09;5021263;28;20466;-86
2022/05/06 01:17:56;;;;;;;11.87;6.37;;;10.00;99.90;;;10.82;100.00;98826.63;5020753;28;20533;-86
2022/05/06 01:20:28;;;;;;;9.70;6.67;;;10.00;99.90;;;10.79;100.00;98829.56;5019572;28;20497;-86
2022/05/06 01:23:01;;;;;;;9.03;5.80;;;9.90;99.90;;;10.74;100.00;98830.06;5021713;28;20466;-86
2022/05/06 01:25:31;;;;;;;10.67;6.40;;;9.90;99.90;;;10.67;100.00;98830.91;5021289;28;20462;-86
2022/05/06 01:28:05;;;;;;;10.13;6.40;;;9.80;99.90;;;10.63;100.00;98833.03;5021254;28;20458;-86
2022/05/06 01:30:40;;;;;;;10.63;6.83;;;9.80;99.90;;;10.63;100.00;98840.06;5020882;28;20956;-87
2022/05/06 01:33:12;;;;;;;8.90;6.67;;;9.80;99.90;;;10.63;100.00;98834.84;5020846;28;20477;-86
2022/05/06 01:35:45;;;;;;;11.60;5.90;;;9.80;99.90;;;10.59;100.00;98826.50;5017400;28;20908;-86
2022/05/06 01:38:26;;;;;;;8.40;6.03;;;9.70;99.90;;;10.60;100.00;98831.59;5018722;28;20492;-86
2022/05/06 01:41:01;;;;;;;8.60;5.53;;;9.70;99.90;;;10.55;100.00;98833.88;5021451;28;20482;-87
2022/05/06 01:43:40;;;;;;;11.47;6.30;;;9.70;99.90;;;10.49;100.00;98833.72;5017260;28;20466;-87
2022/05/06 01:46:14;;;;;;;8.80;6.47;;;9.70;99.90;;;10.41;100.00;98834.56;5018156;28;20458;-86
2022/05/06 01:48:47;;;;;;;24.03;7.30;;;9.60;99.90;;;10.41;100.00;98837.16;5018063;28;20486;-86
2022/05/06 01:51:21;;;;;;;8.10;6.20;;;9.60;99.90;;;10.41;100.00;98839.78;5019235;28;20488;-87
2022/05/06 01:53:53;;;;;;;8.40;6.63;;;9.50;99.90;;;10.39;100.00;98838.31;5020580;28;20541;-86
2022/05/06 01:56:25;;;;;;;8.90;6.30;;;9.50;99.90;;;10.33;100.00;98842.44;5019626;28;20454;-86
2022/05/06 01:58:55;;;;;;;9.07;5.97;;;9.50;99.90;;;10.27;100.00;98847.50;5019212;28;20488;-87
2022/05/06 02:01:29;;;;;;;14.20;6.17;;;9.40;99.90;;;10.21;100.00;98843.75;5018695;28;20500;-86
2022/05/06 02:06:48;;;;;;;11.37;5.87;;;9.30;99.90;;;10.24;100.00;98843.41;5021398;28;20512;-86
2022/05/06 02:09:19;;;;;;;11.60;5.87;;;9.40;99.90;;;10.25;100.00;98845.03;5019279;28;20467;-86
2022/05/06 02:11:50;;;;;;;10.40;6.60;;;9.40;99.90;;;10.23;100.00;98836.56;5018160;28;20466;-86
2022/05/06 02:14:21;;;;;;;11.50;6.80;;;9.30;99.90;;;10.19;100.00;98839.66;5020624;28;20523;-87
2022/05/06 02:16:54;;;;;;;7.63;5.43;;;9.30;99.90;;;10.17;100.00;98831.97;5019576;28;20462;-86
2022/05/06 02:19:23;;;;;;;11.90;6.90;;;9.30;99.90;;;10.12;100.00;98836.88;5019616;28;20466;-86
2022/05/06 02:21:53;;;;;;;9.50;6.60;;;9.30;99.90;;;10.10;100.00;98836.19;5019702;28;20528;-87
2022/05/06 02:24:26;;;;;;;8.00;6.30;;;9.20;99.90;;;10.08;100.00;98840.78;5020171;28;20540;-86
2022/05/06 02:26:55;;;;;;;7.27;6.20;;;9.20;99.90;;;10.07;100.00;98839.97;5019674;28;20462;-86
2022/05/06 02:29:25;;;;;;;12.60;6.43;;;9.20;99.90;;;10.00;100.00;98838.16;5019795;28;20470;-86
2022/05/06 02:34:47;;;;;;;7.87;5.90;;;9.10;99.90;;;10.02;100.00;98837.03;5018839;28;20459;-86
2022/05/06 02:37:16;;;;;;;9.07;5.60;;;9.10;99.90;;;9.97;100.00;98838.50;5018963;28;20474;-87
2022/05/06 02:39:47;;;;;;;9.37;6.40;;;9.10;99.90;;;9.93;100.00;98840.63;5017274;28;21142;-87
2022/05/06 02:42:17;;;;;;;9.93;6.10;;;9.10;99.90;;;9.91;100.00;98841.75;5018395;28;20498;-86
2022/05/06 02:44:48;;;;;;;9.20;6.00;;;9.10;99.90;;;9.87;100.00;98843.06;5019403;28;20463;-86
2022/05/06 02:47:19;;;;;;;10.17;5.87;;;9.00;99.90;;;9.83;100.00;98846.97;5018956;28;20469;-87
2022/05/06 02:49:49;;;;;;;8.63;5.37;;;8.80;99.90;;;9.76;100.00;98838.97;5018555;28;20889;-87
2022/05/06 02:52:19;;;;;;;13.30;6.00;;;9.00;99.90;;;9.73;100.00;98835.88;5020737;28;20510;-89
2022/05/06 02:54:51;;;;;;;9.07;6.07;;;9.00;99.90;;;9.71;100.00;98853.50;5024377;28;20462;-91
2022/05/06 02:57:21;;;;;;;12.90;5.77;;;8.90;99.90;;;9.61;100.00;98844.00;5024632;28;20880;-90
2022/05/06 02:59:50;;;;;;;9.23;6.17;;;9.00;99.90;;;9.55;100.00;98838.63;5027898;28;20473;-89
2022/05/06 03:02:22;;;;;;;7.83;5.87;;;8.90;99.90;;;9.52;100.00;98838.94;5021508;28;20839;-89
2022/05/06 03:04:52;;;;;;;10.27;6.07;;;8.80;99.90;;;9.53;100.00;98841.41;5024083;28;20459;-90
2022/05/06 03:07:21;;;;;;;6.73;5.57;;;8.70;99.90;;;9.50;100.00;98831.28;5023907;28;20465;-89
2022/05/06 03:09:53;;;;;;;22.13;6.40;;;8.80;99.90;;;9.52;100.00;98834.53;5024917;28;20970;-89
2022/05/06 03:12:26;;;;;;;9.93;6.60;;;8.70;99.90;;;9.53;100.00;98825.75;5023194;28;20466;-82
2022/05/06 03:14:57;;;;;;;9.50;5.83;;;8.70;99.90;;;9.50;100.00;98831.28;5018373;28;20548;-84
2022/05/06 03:17:27;;;;;;;17.40;6.67;;;8.80;99.90;;;9.49;100.00;98823.59;5018447;28;20469;-83
2022/05/06 03:19:59;;;;;;;20.10;8.43;;;8.70;99.90;;;9.49;100.00;98834.88;5018341;28;20489;-84
2022/05/06 03:22:30;;;;;;;9.77;5.93;;;8.70;99.90;;;9.46;100.00;98824.75;5022937;28;20502;-86
2022/05/06 03:25:02;;;;;;;6.87;5.80;;;8.70;99.90;;;9.42;100.00;98831.25;5019975;28;20477;-85
2022/05/06 03:30:21;;;;;;;8.67;6.10;;;8.70;99.90;;;9.35;100.00;98830.28;5016823;28;20533;-85
2022/05/06 03:32:51;;;;;;;10.97;7.07;;;8.60;99.90;;;9.35;100.00;98832.06;5020910;28;20492;-85
2022/05/06 03:35:22;;;;;;;7.90;5.53;;;8.60;99.90;;;9.36;100.00;98829.31;5018891;28;20462;-85
2022/05/06 03:37:53;;;;;;;8.43;5.97;;;8.50;99.90;;;9.39;100.00;98823.75;5018756;28;20975;-85
2022/05/06 03:40:25;;;;;;;7.77;5.73;;;8.50;99.90;;;9.32;100.00;98825.38;5019092;28;20465;-85
2022/05/06 03:42:55;;;;;;;14.00;5.93;;;8.50;99.90;;;9.30;100.00;98829.91;5018935;28;20566;-85
2022/05/06 03:45:25;;;;;;;14.33;6.13;;;8.50;99.90;;;9.30;100.00;98827.31;5019618;28;20461;-85
2022/05/06 03:47:55;;;;;;;10.40;5.57;;;8.40;99.90;;;9.23;100.00;98830.75;5017553;28;20964;-85
2022/05/06 03:53:16;;;;;;;8.47;5.40;;;8.40;99.90;;;9.17;100.00;98840.00;5018618;28;20564;-85
2022/05/06 03:55:48;;;;;;;9.63;6.80;;;8.40;99.90;;;9.20;100.00;98838.88;5017285;28;20451;-85
2022/05/06 03:58:19;;;;;;;10.33;6.37;;;8.30;99.90;;;9.14;100.00;98839.50;5017163;28;20465;-85
2022/05/06 04:00:50;;;;;;;11.50;5.73;;;8.30;99.90;;;9.08;100.00;98840.97;5017519;28;20490;-85
2022/05/06 04:03:21;;;;;;;7.23;5.27;;;8.30;99.90;;;9.04;100.00;98845.66;5016695;28;21056;-85
2022/05/06 04:05:52;;;;;;;9.13;6.13;;;8.30;99.90;;;8.98;100.00;98845.50;5017497;28;20987;-84
2022/05/06 04:08:21;;;;;;;7.40;5.50;;;8.30;99.90;;;8.99;100.00;98853.13;5019009;28;20446;-84
2022/05/06 04:10:52;;;;;;;8.03;5.73;;;8.30;99.90;;;9.02;100.00;98849.41;5018930;28;20466;-87
2022/05/06 04:13:22;;;;;;;8.23;5.80;;;8.20;99.90;;;9.02;100.00;98849.41;5021436;28;20470;-84
2022/05/06 04:15:51;;;;;;;8.30;5.70;;;8.20;99.90;;;9.00;100.00;98853.97;5020986;28;20503;-85
2022/05/06 04:18:21;;;;;;;14.10;5.90;;;8.20;99.90;;;8.95;100.00;98851.03;5021608;28;20539;-84
2022/05/06 04:23:39;;;;;;;11.57;6.75;;;8.20;99.90;;;8.95;100.00;98864.06;5026399;28;20534;-84
2022/05/06 04:26:12;;;;;;;9.17;6.70;;;8.10;99.90;;;8.94;100.00;98865.03;5022897;28;20254;-85
2022/05/06 04:28:44;;;;;;;8.13;5.60;;;8.10;99.90;;;8.95;100.00;98864.06;5024666;28;20787;-84
2022/05/06 04:31:17;;;;;;;8.43;6.10;;;8.10;99.90;;;8.94;100.00;98876.28;5023578;28;20465;-84
2022/05/06 04:33:47;;;;;;;8.20;6.00;;;8.10;99.90;;;8.91;100.00;98871.38;5024228;28;20446;-84
2022/05/06 04:36:20;;;;;;;9.80;5.63;;;8.10;99.90;;;8.86;100.00;98878.84;5023941;28;20541;-84
2022/05/06 04:38:51;;;;;;;7.70;5.27;;;8.10;99.90;;;8.86;100.00;98880.63;5023785;28;20477;-84
2022/05/06 04:41:24;;;;;;;8.60;5.67;;;8.10;99.90;;;8.86;100.00;98878.03;5021863;28;20458;-84
2022/05/06 04:43:55;;;;;;;9.73;5.80;;;8.10;99.90;;;8.90;100.00;98880.16;5023233;28;20474;-85
2022/05/06 04:46:24;;;;;;;14.27;6.20;;;8.00;99.90;;;8.90;100.00;98882.78;5024982;28;20457;-85
2022/05/06 04:48:55;;;;;;;7.90;5.50;;;8.10;99.90;;;8.89;100.00;98888.13;5023812;28;20465;-85
2022/05/06 04:51:25;;;;;;;8.50;6.20;;;8.00;99.90;;;8.91;100.00;98891.44;5022245;28;20502;-84
2022/05/06 04:53:55;;;;;;;12.80;7.17;;;8.10;99.90;;;8.92;100.00;98888.66;5024198;28;20822;-85
2022/05/06 04:56:26;;;;;;;8.93;5.73;;;8.10;99.90;;;8.91;100.00;98894.03;5023125;28;20466;-85
2022/05/06 04:58:58;;;;;;;8.47;5.60;;;8.10;99.90;;;8.94;100.00;98891.94;5025184;28;20446;-84
2022/05/06 05:01:30;;;;;;;12.77;5.70;;;8.00;99.90;;;8.97;100.00;98890.78;5022556;28;20990;-85
2022/05/06 05:04:01;;;;;;;9.27;5.30;;;8.10;99.90;;;9.00;100.00;98885.25;5024618;28;20491;-84
2022/05/06 05:06:35;;;;;;;12.53;6.00;;;8.10;99.90;;;9.01;100.00;98892.13;5023573;28;20458;-85
2022/05/06 05:09:05;;;;;;;9.23;6.03;;;8.10;99.90;;;9.03;100.00;98890.16;5022507;28;20473;-85
2022/05/06 05:11:37;;;;;;;6.77;5.50;;;8.10;99.90;;;9.04;100.00;98887.41;5023018;28;20495;-85
2022/05/06 05:14:09;;;;;;;8.37;6.40;;;8.20;99.90;;;9.08;100.00;98887.91;5023939;28;20569;-85
2022/05/06 05:16:40;;;;;;;7.80;5.27;;;8.20;99.90;;;9.09;100.00;98884.34;5025043;28;20462;-81
2022/05/06 05:19:10;;;;;;;7.63;5.87;;;8.20;99.90;;;9.13;100.00;98890.06;5021496;28;20501;-85
2022/05/06 05:21:40;;;;;;;9.17;6.17;;;8.20;99.90;;;9.15;100.00;98894.16;5023017;28;20454;-85
2022/05/06 05:24:11;;;;;;;9.63;6.77;;;8.30;99.90;;;9.17;100.00;98894.78;5025867;28;20482;-85
2022/05/06 05:26:43;;;;;;;11.70;5.77;;;8.30;99.90;;;9.20;100.00;98891.88;5023156;28;20455;-85
2022/05/06 05:29:13;;;;;;;9.83;6.03;;;8.20;99.90;;;9.25;100.00;98905.28;5024207;28;20466;-84
2022/05/06 05:31:43;;;;;;;8.00;5.47;;;8.30;99.90;;;9.31;100.00;98898.59;5020099;28;20490;-85
2022/05/06 05:34:15;;;;;;;6.70;4.93;;;8.40;99.90;;;9.36;100.00;98901.56;5022894;28;20446;-84
2022/05/06 05:36:46;;;;;;;7.37;5.30;;;8.50;99.90;;;9.39;100.00;98896.84;5026206;28;20490;-85
2022/05/06 05:39:15;;;;;;;11.53;5.73;;;8.50;99.90;;;9.44;100.00;98896.38;5022888;28;20482;-84
2022/05/06 05:41:51;;;;;;;10.47;5.70;;;8.50;99.90;;;9.49;100.00;98899.31;5022995;28;20462;-85
2022/05/06 05:49:57;;;;;;;7.77;5.50;;;8.70;99.90;;;9.65;100.00;98906.38;5022644;28;20548;-85
2022/05/06 05:52:28;;;;;;;6.77;5.33;;;8.70;99.90;;;9.65;100.00;98906.38;5022740;28;21032;-84
2022/05/06 05:54:59;;;;;;;10.53;6.60;;;8.70;99.90;;;9.70;100.00;98906.72;5022792;28;20466;-85
2022/05/06 05:57:32;;;;;;;6.90;5.60;;;8.70;99.90;;;9.73;100.00;98907.22;5023069;28;20541;-85
2022/05/06 06:00:02;;;;;;;10.33;5.07;;;8.80;99.90;;;9.78;100.00;98906.72;5021426;28;20469;-85
2022/05/06 06:02:32;;;;;;;9.33;6.07;;;8.80;99.90;;;9.83;100.00;98901.81;5022529;28;20455;-85
2022/05/06 06:05:02;;;;;;;18.97;6.13;;;8.80;99.90;;;9.87;100.00;98900.53;5023420;28;20473;-85
2022/05/06 06:07:32;;;;;;;12.03;6.00;;;8.90;99.90;;;9.93;100.00;98899.88;5023013;28;20454;-85
2022/05/06 06:10:01;;;;;;;9.67;5.93;;;9.00;99.90;;;9.97;100.00;98901.19;5021960;28;20475;-85
2022/05/06 06:12:33;;;;;;;8.13;5.87;;;9.00;99.90;;;10.00;100.00;98898.25;5022072;28;20470;-84
2022/05/06 06:15:04;;;;;;;10.13;5.47;;;9.00;99.90;;;10.05;100.00;98901.22;5022513;28;20476;-85
2022/05/06 06:17:34;;;;;;;10.77;5.93;;;9.10;99.90;;;10.08;100.00;98890.44;5022633;28;20466;-84
2022/05/06 06:20:05;;;;;;;9.07;6.13;;;9.20;99.90;;;10.13;100.00;98896.00;5020612;28;20473;-85
2022/05/06 06:22:36;;;;;;;7.70;5.83;;;9.20;99.90;;;10.17;100.00;98886.84;5022603;28;20534;-85
2022/05/06 06:25:10;;;;;;;8.10;5.93;;;9.20;99.90;;;10.20;100.00;98890.97;5022043;28;20451;-85
2022/05/06 06:27:43;;;;;;;8.27;6.30;;;9.30;99.90;;;10.25;100.00;98889.47;5022014;28;20536;-85
2022/05/06 06:30:13;;;;;;;17.80;6.50;;;9.30;99.90;;;10.29;100.00;98885.56;5022950;28;20497;-85
2022/05/06 06:32:52;;;;;;;9.20;6.47;;;9.40;99.90;;;10.35;100.00;98892.75;5023287;28;20903;-85
2022/05/06 06:35:23;;;;;;;9.30;6.30;;;9.40;99.90;;;10.39;100.00;98895.84;5021646;28;20467;-84
2022/05/06 06:37:52;;;;;;;9.07;7.00;;;9.50;99.90;;;10.44;100.00;98888.34;5021224;28;20475;-85
2022/05/06 06:40:21;;;;;;;13.60;6.10;;;9.50;99.90;;;10.50;100.00;98888.50;5021520;28;20470;-84
2022/05/06 06:43:02;;;;;;;8.93;6.33;;;9.60;99.90;;;10.57;100.00;98884.22;5020660;28;20478;-84
2022/05/06 06:45:31;;;;;;;9.30;5.90;;;9.70;99.90;;;10.65;100.00;98890.44;5021172;28;20447;-84
2022/05/06 06:48:01;;;;;;;8.30;6.20;;;9.80;99.90;;;10.73;100.00;98887.78;5020863;28;20461;-84
2022/05/06 06:50:32;;;;;;;10.43;6.97;;;9.80;99.90;;;10.78;100.00;98886.31;5021496;28;20504;-84
2022/05/06 06:53:02;;;;;;;10.13;6.40;;;9.90;99.90;;;10.85;100.00;98882.03;5021428;28;20470;-84
2022/05/06 06:55:31;;;;;;;8.13;5.80;;;10.00;99.90;;;10.93;100.00;98894.28;5022036;28;20450;-84
2022/05/06 06:58:02;;;;;;;9.73;6.10;;;10.10;99.90;;;10.99;100.00;98883.97;5020874;28;20480;-85
2022/05/06 07:00:33;;;;;;;6.53;5.27;;;10.20;99.90;;;11.06;100.00;98890.16;5020019;28;20569;-84
2022/05/06 07:03:03;;;;;;;9.30;5.63;;;10.30;99.90;;;11.14;100.00;98891.94;5020352;28;21089;-84
2022/05/06 07:05:33;;;;;;;6.63;4.40;;;10.40;99.90;;;11.23;100.00;98890.09;5022122;28;20531;-84
2022/05/06 07:13:56;;;;;;;7.17;3.10;;;10.80;99.90;;;11.54;100.00;98885.66;5021312;28;20485;-84
2022/05/06 07:16:27;;;;;;;7.70;3.20;;;10.90;99.90;;;11.67;100.00;98888.53;5022313;28;20504;-83
2022/05/06 07:18:58;;;;;;;4.60;3.10;;;11.00;99.90;;;11.78;100.00;98888.19;5020691;28;20451;-84
2022/05/06 07:21:29;;;;;;;3.53;2.20;;;11.20;99.90;;;11.89;100.00;98884.34;5023392;28;21183;-84
2022/05/06 07:23:59;;;;;;;4.20;2.40;;;11.30;99.90;;;12.01;100.00;98886.38;5025962;28;20486;-84
2022/05/06 07:26:28;;;;;;;9.20;3.13;;;11.40;99.90;;;12.10;100.00;98879.28;5023242;28;20695;-83
2022/05/06 07:28:59;;;;;;;5.10;2.67;;;11.50;99.90;;;12.22;100.00;98883.09;5020423;28;20955;-84
2022/05/06 07:31:31;;;;;;;6.93;2.93;;;11.50;99.90;;;12.29;100.00;98889.25;5019780;28;20940;-83
2022/05/06 07:34:01;;;;;;;7.90;2.67;;;11.60;99.90;;;12.41;100.00;98885.25;5021685;28;20457;-84
2022/05/06 07:36:31;;;;;;;5.07;2.57;;;11.80;99.90;;;12.52;100.00;98884.81;5019828;28;20449;-83
2022/05/06 07:39:01;;;;;;;2.50;2.30;;;11.90;99.90;;;12.60;100.00;98892.59;5026182;28;20474;-84
2022/05/06 07:41:32;;;;;;;4.47;2.73;;;12.00;99.90;;;12.69;100.00;98889.88;5026336;28;20454;-84
2022/05/06 07:44:04;;;;;;;6.53;2.57;;;12.10;99.90;;;12.80;100.00;98897.31;5026376;28;20497;-84
2022/05/06 07:46:34;;;;;;;4.63;2.00;;;12.10;99.90;;;12.87;100.00;98893.81;5020593;28;20476;-84
2022/05/06 07:49:07;;;;;;;4.10;2.07;;;12.20;99.90;;;12.99;98.45;98891.53;5019766;28;20458;-84
2022/05/06 07:51:37;;;;;;;3.23;2.17;;;12.40;99.70;;;13.09;96.95;98889.47;5024910;28;20911;-84
2022/05/06 07:54:06;;;;;;;5.77;2.40;;;12.50;99.90;;;13.18;94.88;98883.16;5024673;28;20454;-87
2022/05/06 07:56:36;;;;;;;3.73;2.20;;;12.50;99.10;;;13.29;94.61;98880.06;5024497;28;20528;-84
2022/05/06 07:59:08;;;;;;;3.30;2.17;;;12.70;99.50;;;13.35;95.01;98881.94;5024632;28;20525;-84
2022/05/06 08:04:35;;;;;;;2.30;1.70;;;12.80;98.90;;;13.53;90.62;98876.28;5024086;28;20485;-84
2022/05/06 08:07:06;;;;;;;4.03;2.20;;;12.90;98.40;;;13.62;90.00;98883.06;5026141;28;20493;-84
2022/05/06 08:09:36;;;;;;;4.77;2.30;;;13.00;98.70;;;13.70;88.47;98882.13;5024214;28;20447;-84
2022/05/06 08:12:07;;;;;;;4.10;2.20;;;13.10;98.70;;;13.75;85.59;98874.47;5024981;28;20462;-88
2022/05/06 08:14:39;;;;;;;4.70;2.00;;;13.10;97.20;;;13.82;82.57;98880.63;5023155;28;20449;-84
2022/05/06 08:17:09;;;;;;;5.67;2.30;;;13.20;97.10;;;13.91;81.94;98887.41;5024070;28;20471;-84
2022/05/06 08:19:39;;;;;;;4.00;1.73;;;13.30;96.80;;;13.97;82.42;98884.84;5024769;28;20545;-84
2022/05/06 08:22:08;;;;;;;3.03;1.60;;;13.40;97.30;;;14.08;81.99;98883.53;5024398;28;20513;-84
2022/05/06 08:24:39;;;;;;;3.60;1.87;;;13.40;97.00;;;14.17;81.61;98887.66;5026373;28;20577;-84
2022/05/06 08:27:27;;;;;;;5.43;2.40;;;13.50;96.70;;;14.21;79.19;98873.13;5029834;28;20521;-84
2022/05/06 08:29:59;;;;;;;2.77;1.60;;;13.60;96.10;;;14.26;79.22;98876.00;5030574;28;20450;-84
2022/05/06 08:32:29;;;;;;;5.97;1.90;;;13.70;96.00;;;14.36;81.73;98875.69;5030640;28;20442;-83
2022/05/06 08:34:59;;;;;;;19.33;2.00;;;13.80;97.40;;;14.39;74.97;98872.69;5030049;28;20445;-84
2022/05/06 08:37:29;;;;;;;8.23;1.97;;;13.80;94.10;;;14.47;73.65;98873.34;5029107;28;20478;-84
2022/05/06 08:39:58;;;;;;;5.63;2.30;;;13.80;94.60;;;14.54;71.03;98876.06;5023771;28;20462;-84
2022/05/06 08:42:27;;;;;;;4.90;1.87;;;13.90;94.00;;;14.61;67.80;98876.91;5024500;28;20467;-84
2022/05/06 08:50:53;;;;;;;3.60;2.00;;;14.10;93.10;;;14.79;64.21;98882.47;5024572;28;20470;-84
2022/05/06 08:53:24;;;;;;;6.00;1.60;;;14.20;92.80;;;14.87;65.40;98878.88;5021101;28;21013;-83
2022/05/06 08:55:56;;;;;;;4.23;1.80;;;14.30;92.90;;;14.91;64.55;98877.50;5022847;28;20454;-85
2022/05/06 08:58:27;;;;;;;3.60;2.00;;;14.40;93.10;;;14.93;66.91;98872.84;5024046;28;20454;-84
2022/05/06 09:01:06;;;;;;;3.07;2.40;;;14.30;93.90;;;15.00;61.91;98871.06;5022895;28;20523;-84
2022/05/06 09:03:47;;;;;;;5.10;2.13;;;14.50;92.00;;;15.07;63.95;98874.53;5024854;28;20450;-84
2022/05/06 09:06:22;;;;;;;4.30;2.10;;;14.50;93.10;;;15.08;63.36;98874.34;5023822;28;20603;-84
2022/05/06 09:08:54;;;;;;;2.73;2.13;;;14.50;92.40;;;15.14;62.95;98875.38;5023486;28;20434;-84
2022/05/06 09:14:15;;;;;;;4.77;1.70;;;14.60;93.30;;;15.24;66.76;98875.81;5022690;28;20881;-84
2022/05/06 09:16:46;;;;;;;5.10;2.10;;;14.60;93.90;;;15.29;68.16;98872.63;5023436;28;20505;-84
2022/05/06 09:19:20;;;;;;;3.43;1.80;;;14.70;93.90;;;15.35;65.31;98883.19;5023260;28;20534;-84
2022/05/06 09:22:13;;;;;;;1.97;1.53;;;14.80;93.30;;;15.39;64.31;98879.16;5021912;28;20998;-84
2022/05/06 09:24:43;;;;;;;2.33;1.67;;;14.80;92.90;;;15.42;64.56;98873.47;5024594;28;20916;-84
2022/05/06 09:27:15;;;;;;;4.33;1.87;;;14.90;93.20;;;15.53;64.39;98877.41;5022995;28;21154;-84
2022/05/06 09:29:47;;;;;;;1.87;1.67;;;14.90;93.10;;;15.57;63.41;98876.81;5022816;28;20469;-84
2022/05/06 09:32:23;;;;;;;2.97;1.80;;;15.00;93.00;;;15.62;63.68;98876.19;5023807;28;20447;-84
2022/05/06 09:34:56;;;;;;;1.80;1.20;;;15.00;93.00;;;15.67;61.83;98873.78;5022554;28;20493;-84
2022/05/06 09:37:38;;;;;;;3.20;1.83;;;15.10;92.30;;;15.68;62.62;98864.88;5024398;28;20465;-84
2022/05/06 09:40:11;;;;;;;2.63;1.57;;;15.10;92.80;;;15.71;61.99;98882.13;5025478;28;20470;-84
2022/05/06 09:42:45;;;;;;;2.33;1.40;;;15.20;92.50;;;15.75;60.29;98872.81;5024631;28;21035;-83
2022/05/06 09:45:28;;;;;;;1.70;1.30;;;15.10;91.80;;;15.80;60.74;98867.72;5022675;28;20497;-84
2022/05/06 09:48:01;;;;;;;3.17;2.10;;;15.20;92.10;;;15.86;62.24;98874.88;5024042;28;21447;-84
2022/05/06 09:50:36;;;;;;;2.00;1.53;;;15.20;92.80;;;15.94;61.90;98883.38;5023879;28;20476;-84
2022/05/06 09:53:08;;;;;;;2.60;1.43;;;15.30;92.40;;;15.98;60.86;98873.25;5022060;28;20936;-84
2022/05/06 09:55:40;;;;;;;6.10;1.43;;;15.40;91.70;;;15.99;59.59;98875.69;5022728;28;20604;-83
2022/05/06 09:58:11;;;;;;;2.60;1.50;;;15.40;91.60;;;16.04;58.51;98875.06;5020949;28;20493;-84
2022/05/06 10:00:41;;;;;;;4.10;1.60;;;15.40;91.00;;;16.09;58.15;98872.66;5022358;28;20540;-84
2022/05/06 10:03:12;;;;;;;1.63;1.33;;;15.40;91.10;;;16.12;57.37;98874.88;5022078;28;20786;-84
2022/05/06 10:05:43;;;;;;;2.57;1.53;;;15.50;90.90;;;16.13;54.84;98876.53;5021792;28;20478;-84
2022/05/06 10:08:19;;;;;;;5.93;1.60;;;15.60;89.60;;;16.19;56.36;98886.25;5022443;28;20849;-83
2022/05/06 10:10:57;;;;;;;3.70;1.50;;;15.70;90.60;;;16.24;56.40;98886.47;5021276;28;20465;-83
2022/05/06 10:13:31;;;;;;;3.07;1.60;;;15.70;90.70;;;16.27;54.23;98875.53;5022697;28;20446;-83
2022/05/06 10:16:01;;;;;;;4.00;1.37;;;15.70;89.30;;;16.30;55.62;98877.75;5022955;28;20442;-84
2022/05/06 10:18:35;;;;;;;5.60;1.97;;;15.70;90.40;;;16.34;54.82;98876.34;5021353;28;20462;-84
2022/05/06 10:21:06;;;;;;;3.40;1.67;;;15.80;89.90;;;16.37;54.40;98875.09;5021291;28;20477;-83
2022/05/06 10:23:52;;;;;;;2.30;1.63;;;15.80;89.40;;;16.40;54.19;98883.44;5021760;28;20467;-84
2022/05/06 10:26:45;;;;;;;2.33;1.47;;;15.80;90.00;;;16.46;54.54;98882.59;5022064;28;20514;-84
2022/05/06 10:33:03;;;;;;;3.27;1.50;;;15.90;90.10;;;16.55;53.34;98885.88;5022435;28;20532;-84
2022/05/06 10:35:43;;;;;;;2.70;2.30;;;15.90;87.60;;;16.55;53.23;98865.59;5022805;28;20513;-83
2022/05/06 10:38:26;;;;;;;6.73;1.87;;;15.90;89.00;;;16.57;55.01;98868.81;5021674;28;20824;-83
2022/05/06 10:40:58;;;;;;;1.67;1.43;;;15.90;90.70;;;16.67;55.35;98864.94;5021313;28;20502;-84
2022/05/06 10:43:53;;;;;;;6.20;1.27;;;16.10;90.60;;;16.76;55.68;98855.81;5022109;28;20455;-84
2022/05/06 10:46:47;;;;;;;4.53;1.50;;;16.20;90.50;;;16.84;54.68;98850.28;5022131;28;20541;-84
2022/05/06 10:49:52;;;;;;;2.03;1.50;;;16.20;90.00;;;16.87;53.35;98858.59;5021846;28;20525;-84
2022/05/06 10:52:46;;;;;;;1.90;1.30;;;16.40;88.90;;;16.91;52.83;98848.44;5020993;28;20708;-83
2022/05/06 10:55:20;;;;;;;1.73;1.43;;;16.30;88.00;;;16.95;53.84;98866.31;5021957;28;20454;-84
2022/05/06 10:58:00;;;;;;;2.40;1.90;;;16.40;90.00;;;16.97;51.82;98855.56;5021247;28;20450;-84
2022/05/06 11:00:33;;;;;;;3.10;1.50;;;16.40;87.50;;;17.04;53.78;98854.50;5021124;28;20955;-84
2022/05/06 11:03:02;;;;;;;1.70;1.50;;;16.40;90.00;;;17.10;54.34;98852.84;5022083;28;20934;-83
2022/05/06 11:05:33;;;;;;;2.37;1.37;;;16.40;90.10;;;17.14;51.91;98851.44;5021177;28;20478;-84
2022/05/06 11:08:06;;;;;;;3.43;1.50;;;16.60;88.10;;;17.16;51.85;98846.72;5020589;28;20479;-84
2022/05/06 11:10:36;;;;;;;3.10;1.67;;;16.60;88.40;;;17.25;51.71;98848.09;5021249;28;20848;-84
2022/05/06 11:13:26;;;;;;;1.77;1.40;;;16.80;87.50;;;17.35;53.29;98847.69;5021615;28;20446;-84
2022/05/06 11:15:57;;;;;;;6.93;1.80;;;16.80;89.50;;;17.40;53.28;98839.91;5020554;28;20517;-84
2022/05/06 11:18:28;;;;;;;7.90;1.83;;;16.80;89.30;;;17.44;52.44;98838.47;5020790;28;20438;-84
2022/05/06 11:20:58;;;;;;;2.13;1.47;;;16.90;88.50;;;17.48;52.76;98834.38;5020492;28;21107;-83
2022/05/06 11:23:31;;;;;;;2.30;1.67;;;16.90;88.80;;;17.49;52.03;98839.44;5019788;28;21038;-84